createdAt,value
2019-05-30T00:00:16.978Z,83.59
2019-05-30T00:02:42.690Z,83.68
2019-05-30T00:05:13.677Z,83.71
2019-05-30T00:07:44.363Z,83.65
2019-05-30T00:10:15.227Z,83.61
2019-05-30T00:12:45.913Z,83.68
2019-05-30T00:15:17.031Z,83.69
2019-05-30T00:17:47.704Z,83.56
2019-05-30T00:20:18.323Z,83.52
2019-05-30T00:22:49.049Z,83.54
2019-05-30T00:25:19.903Z,83.42
2019-05-30T00:27:50.745Z,83.37
2019-05-30T00:30:24.750Z,83.34
2019-05-30T00:32:53.759Z,83.34
2019-05-30T00:35:24.492Z,83.39
2019-05-30T00:37:55.645Z,83.28
2019-05-30T00:40:26.178Z,83.18
2019-05-30T00:42:57.810Z,83.17
2019-05-30T00:45:28.403Z,83.22
2019-05-30T00:48:00.052Z,83.14
2019-05-30T00:50:30.878Z,82.97
2019-05-30T00:53:02.849Z,83.01
2019-05-30T00:55:33.515Z,82.87
2019-05-30T00:58:04.830Z,82.85
2019-05-30T01:00:43.549Z,82.76
2019-05-30T01:03:09.189Z,82.59
2019-05-30T01:05:39.983Z,82.59
2019-05-30T01:08:10.654Z,82.49
2019-05-30T01:10:41.594Z,82.26
2019-05-30T01:13:12.214Z,82.19
2019-05-30T01:15:43.083Z,82.13
2019-05-30T01:18:13.679Z,82.14
2019-05-30T01:20:45.140Z,82.13
2019-05-30T01:23:15.735Z,81.99
2019-05-30T01:25:46.302Z,82.01
2019-05-30T01:28:17.066Z,81.94
2019-05-30T01:30:59.524Z,81.95
2019-05-30T01:33:20.017Z,81.93
2019-05-30T01:35:50.630Z,82.05
2019-05-30T01:38:21.288Z,82.08
2019-05-30T01:40:51.860Z,82.07
2019-05-30T01:43:22.394Z,82.09
2019-05-30T01:45:52.971Z,82.04
2019-05-30T01:48:23.856Z,81.81
2019-05-30T01:50:54.529Z,81.73
2019-05-30T01:53:25.162Z,81.74
2019-05-30T01:55:55.899Z,81.56
2019-05-30T01:58:26.652Z,81.53
2019-05-30T02:00:58.657Z,81.52
2019-05-30T02:03:29.345Z,81.36
2019-05-30T02:06:01.043Z,81.37
2019-05-30T02:08:31.718Z,81.39
2019-05-30T02:11:03.355Z,81.34
2019-05-30T02:13:33.984Z,81.40
2019-05-30T02:16:05.725Z,81.45
2019-05-30T02:18:36.453Z,81.48
2019-05-30T02:21:07.906Z,81.50
2019-05-30T02:23:38.507Z,81.52
2019-05-30T02:26:10.396Z,81.48
2019-05-30T02:28:41.212Z,81.47
2019-05-30T02:31:12.943Z,81.61
2019-05-30T02:33:43.583Z,81.56
2019-05-30T02:36:14.298Z,81.71
2019-05-30T02:38:45.025Z,81.74
2019-05-30T02:41:17.173Z,81.67
2019-05-30T02:43:47.804Z,81.69
2019-05-30T02:46:18.270Z,81.59
2019-05-30T02:48:58.719Z,81.66
2019-05-30T02:51:21.075Z,81.58
2019-05-30T02:53:51.539Z,81.76
2019-05-30T02:56:22.154Z,81.86
2019-05-30T02:58:52.727Z,81.78
2019-05-30T03:01:23.378Z,81.76
2019-05-30T03:03:53.990Z,81.86
2019-05-30T03:06:24.640Z,81.88
2019-05-30T03:08:55.281Z,81.82
2019-05-30T03:11:27.324Z,81.76
2019-05-30T03:13:58.318Z,81.73
2019-05-30T03:16:28.793Z,81.64
2019-05-30T03:18:59.726Z,81.63
2019-05-30T03:21:30.434Z,81.64
2019-05-30T03:24:02.795Z,81.60
2019-05-30T03:26:33.592Z,81.63
2019-05-30T03:29:05.568Z,81.66
2019-05-30T03:31:37.231Z,81.78
2019-05-30T03:34:16.437Z,81.69
2019-05-30T03:36:40.256Z,81.75
2019-05-30T03:39:12.516Z,81.77
2019-05-30T03:41:42.975Z,81.77
2019-05-30T03:44:15.366Z,81.68
2019-05-30T03:46:50.020Z,81.61
2019-05-30T03:49:24.124Z,81.71
2019-05-30T03:51:57.918Z,81.66
2019-05-30T03:54:28.838Z,81.67
2019-05-30T03:57:18.235Z,81.54
2019-05-30T03:59:54.327Z,81.52
2019-05-30T04:02:58.121Z,81.40
2019-05-30T04:05:33.935Z,81.29
2019-05-30T04:08:09.447Z,81.28
2019-05-30T04:10:42.882Z,81.24
2019-05-30T04:13:26.555Z,81.22
2019-05-30T04:15:57.286Z,81.33
2019-05-30T04:18:27.862Z,81.44
2019-05-30T04:20:58.292Z,81.37
2019-05-30T04:23:28.835Z,81.41
2019-05-30T04:26:00.936Z,81.37
2019-05-30T04:28:31.810Z,81.38
2019-05-30T04:31:03.355Z,81.23
2019-05-30T04:33:34.077Z,81.25
2019-05-30T04:36:04.567Z,81.20
2019-05-30T04:38:35.157Z,81.13
2019-05-30T04:41:05.729Z,81.00
2019-05-30T04:43:36.249Z,80.96
2019-05-30T04:46:06.990Z,80.98
2019-05-30T04:48:37.672Z,80.79
2019-05-30T04:51:10.027Z,80.66
2019-05-30T04:53:40.763Z,80.66
2019-05-30T04:56:12.617Z,80.59
2019-05-30T04:58:43.321Z,80.57
2019-05-30T05:01:15.501Z,80.59
2019-05-30T05:03:46.882Z,80.43
2019-05-30T05:06:17.952Z,80.37
2019-05-30T05:08:48.968Z,80.18
2019-05-30T05:11:23.032Z,79.99
2019-05-30T05:13:51.746Z,79.78
2019-05-30T05:16:33.987Z,79.62
2019-05-30T05:18:54.419Z,79.31
2019-05-30T05:21:27.470Z,79.08
2019-05-30T05:23:58.368Z,78.94
2019-05-30T05:26:28.974Z,78.71
2019-05-30T05:28:59.529Z,78.55
2019-05-30T05:31:30.046Z,78.44
2019-05-30T05:34:01.612Z,78.27
2019-05-30T05:36:32.136Z,78.09
2019-05-30T05:39:02.699Z,77.96
2019-05-30T05:41:33.448Z,77.50
2019-05-30T05:44:04.022Z,77.15
2019-05-30T05:46:34.651Z,76.67
2019-05-30T05:49:05.319Z,75.99
2019-05-30T05:51:35.891Z,75.57
2019-05-30T05:54:06.478Z,75.05
2019-05-30T05:56:37.035Z,73.96
2019-05-30T05:59:07.522Z,73.08
2019-05-30T06:01:38.022Z,72.69
2019-05-30T06:04:13.096Z,71.28
2019-05-30T06:06:41.026Z,69.46
2019-05-30T06:09:11.918Z,68.00
2019-05-30T06:11:42.441Z,65.93
2019-05-30T06:14:13.104Z,64.86
2019-05-30T06:16:43.897Z,64.30
2019-05-30T06:19:17.155Z,62.19
2019-05-30T06:21:53.873Z,61.31
2019-05-30T06:24:21.518Z,60.44
2019-05-30T06:26:52.025Z,60.03
2019-05-30T06:29:22.560Z,58.63
2019-05-30T06:31:54.088Z,59.01
2019-05-30T06:34:32.727Z,59.30
2019-05-30T06:36:57.166Z,58.37
2019-05-30T06:39:27.839Z,58.66
2019-05-30T06:41:58.408Z,58.49
2019-05-30T06:44:30.237Z,57.05
2019-05-30T06:47:00.862Z,56.04
2019-05-30T06:49:31.384Z,55.83
2019-05-30T06:52:02.170Z,55.36
2019-05-30T06:54:33.713Z,54.18
2019-05-30T06:57:05.378Z,53.06
2019-05-30T06:59:35.996Z,51.66
2019-05-30T07:02:06.510Z,50.83
2019-05-30T07:04:50.975Z,50.26
2019-05-30T07:07:09.545Z,50.04
2019-05-30T07:09:40.303Z,50.09
2019-05-30T07:12:11.991Z,49.78
2019-05-30T07:14:43.925Z,49.26
2019-05-30T07:17:15.521Z,48.69
2019-05-30T07:19:46.059Z,48.55
2019-05-30T07:22:16.733Z,48.64
2019-05-30T07:24:47.235Z,49.20
2019-05-30T07:27:18.056Z,48.93
2019-05-30T07:29:48.874Z,48.11
2019-05-30T07:32:19.373Z,47.50
2019-05-30T07:35:03.419Z,46.86
2019-05-30T07:37:24.363Z,46.07
2019-05-30T07:39:55.033Z,46.59
2019-05-30T07:42:26.549Z,46.47
2019-05-30T07:44:57.272Z,46.10
2019-05-30T07:47:28.115Z,45.79
2019-05-30T07:49:58.686Z,45.58
2019-05-30T07:52:30.288Z,45.50
2019-05-30T07:55:02.156Z,45.37
2019-05-30T07:57:32.959Z,45.42
2019-05-30T08:00:03.900Z,44.67
2019-05-30T08:02:35.761Z,44.78
2019-05-30T09:24:09.849Z,49.74
2019-05-30T09:26:44.178Z,49.37
2019-05-30T09:29:16.545Z,48.66
2019-05-30T09:31:47.057Z,48.71
2019-05-30T09:34:18.315Z,48.83
2019-05-30T09:36:49.190Z,48.78
2019-05-30T09:39:20.384Z,49.32
2019-05-30T09:41:50.901Z,49.58
2019-05-30T09:44:21.414Z,49.06
2019-05-30T09:46:52.216Z,49.20
2019-05-30T09:49:24.342Z,49.13
2019-05-30T09:51:54.953Z,48.74
2019-05-30T09:54:25.681Z,47.87
2019-05-30T09:56:57.313Z,47.70
2019-05-30T09:59:28.358Z,47.15
2019-05-30T10:01:58.930Z,46.78
2019-05-30T10:04:29.564Z,46.27
2019-05-30T10:07:00.160Z,46.97
2019-05-30T10:09:30.705Z,46.91
2019-05-30T10:13:52.855Z,48.49
2019-05-30T10:16:23.537Z,47.81
2019-05-30T10:18:57.012Z,47.68
2019-05-30T10:21:28.116Z,47.78
2019-05-30T10:23:59.359Z,47.42
2019-05-30T10:28:14.097Z,47.42
2019-05-30T10:32:13.115Z,48.68
2019-05-30T10:35:01.537Z,48.67
2019-05-30T10:37:32.100Z,49.29
2019-05-30T10:40:03.636Z,49.35
2019-05-30T10:42:35.163Z,49.15
2019-05-30T10:45:06.904Z,49.05
2019-05-30T10:47:37.611Z,49.38
2019-05-30T10:50:10.641Z,49.58
2019-05-30T10:52:41.719Z,49.53
2019-05-30T10:55:14.504Z,48.99
2019-05-30T10:57:47.012Z,48.77
2019-05-30T11:00:19.532Z,48.32
2019-05-30T11:02:51.237Z,48.23
2019-05-30T11:05:23.182Z,47.69
2019-05-30T11:08:06.241Z,47.76
2019-05-30T11:10:38.943Z,47.63
2019-05-30T11:13:12.240Z,48.35
2019-05-30T11:15:44.478Z,48.49
2019-05-30T11:18:16.201Z,48.03
2019-05-30T11:20:47.826Z,48.06
2019-05-30T11:23:18.979Z,48.65
2019-05-30T11:25:50.477Z,48.48
2019-05-30T11:28:22.757Z,48.02
2019-05-30T11:30:54.775Z,47.28
2019-05-30T11:33:26.796Z,47.59
2019-05-30T11:35:57.510Z,47.81
2019-05-30T11:38:28.117Z,47.89
2019-05-30T11:41:01.046Z,47.22
2019-05-30T11:43:34.058Z,46.37
2019-05-30T11:46:04.785Z,46.27
2019-05-30T11:48:35.442Z,46.24
2019-05-30T11:51:06.692Z,46.34
2019-05-30T11:53:37.191Z,45.99
2019-05-30T11:56:08.912Z,46.30
2019-05-30T11:58:39.490Z,46.03
2019-05-30T12:01:10.106Z,45.83
2019-05-30T12:03:41.819Z,46.68
2019-05-30T12:06:12.337Z,47.01
2019-05-30T12:08:42.912Z,47.01
2019-05-30T12:11:13.370Z,47.24
2019-05-30T12:13:45.409Z,47.81
2019-05-30T12:16:16.231Z,48.47
2019-05-30T12:18:47.044Z,48.79
2019-05-30T12:21:18.950Z,48.90
2019-05-30T12:23:49.731Z,49.62
2019-05-30T12:26:20.403Z,50.21
2019-05-30T12:28:54.114Z,50.19
2019-05-30T12:31:24.902Z,50.36
2019-05-30T12:33:56.244Z,50.12
2019-05-30T12:36:28.049Z,50.06
2019-05-30T12:38:58.851Z,50.06
2019-05-30T12:41:29.842Z,49.93
2019-05-30T12:44:01.326Z,50.08
2019-05-30T12:46:32.540Z,49.89
2019-05-30T12:49:03.684Z,50.26
2019-05-30T12:51:35.010Z,49.87
2019-05-30T12:54:08.639Z,49.04
2019-05-30T12:56:45.257Z,48.67
2019-05-30T12:59:14.853Z,47.32
2019-05-30T13:01:56.782Z,45.81
2019-05-30T13:04:34.112Z,46.49
2019-05-30T13:07:18.909Z,46.29
2019-05-30T13:09:51.740Z,46.31
2019-05-30T13:12:25.638Z,46.29
2019-05-30T13:15:04.035Z,46.18
2019-05-30T13:17:34.990Z,46.67
2019-05-30T13:20:08.741Z,47.49
2019-05-30T13:22:44.489Z,47.79
2019-05-30T13:25:19.226Z,47.95
2019-05-30T13:27:50.392Z,48.73
2019-05-30T13:30:21.358Z,49.24
2019-05-30T13:32:52.907Z,49.57
2019-05-30T13:35:23.851Z,49.50
2019-05-30T13:37:58.961Z,49.71
2019-05-30T13:40:30.586Z,49.82
2019-05-30T13:43:03.937Z,49.87
2019-05-30T13:45:39.710Z,50.70
2019-05-30T13:48:10.739Z,50.91
2019-05-30T13:50:43.005Z,51.34
2019-05-30T13:53:13.614Z,51.65
2019-05-30T13:55:44.294Z,51.55
2019-05-30T13:58:19.645Z,51.47
2019-05-30T14:00:51.187Z,51.24
2019-05-30T14:03:22.556Z,50.97
2019-05-30T14:05:56.287Z,50.69
2019-05-30T14:08:40.745Z,50.64
2019-05-30T14:11:02.495Z,50.38
2019-05-30T14:13:33.634Z,50.42
2019-05-30T14:16:04.851Z,49.96
2019-05-30T14:18:35.599Z,49.85
2019-05-30T14:21:09.929Z,50.02
2019-05-30T14:23:40.543Z,50.36
2019-05-30T14:26:11.618Z,50.38
2019-05-30T14:28:42.680Z,50.58
2019-05-30T14:31:13.614Z,50.35
2019-05-30T14:33:46.315Z,50.08
2019-05-30T14:36:16.963Z,50.06
2019-05-30T14:38:57.894Z,50.35
2019-05-30T14:41:20.437Z,50.19
2019-05-30T14:43:52.156Z,50.42
2019-05-30T14:46:25.258Z,51.32
2019-05-30T14:48:56.002Z,52.34
2019-05-30T14:51:26.901Z,52.76
2019-05-30T14:53:58.525Z,53.00
2019-05-30T14:56:30.144Z,52.52
2019-05-30T14:59:01.222Z,52.13
2019-05-30T15:01:31.888Z,52.08
2019-05-30T15:04:02.651Z,51.69
2019-05-30T15:06:33.319Z,51.17
2019-05-30T15:09:15.304Z,50.96
2019-05-30T15:11:37.384Z,50.62
2019-05-30T15:14:08.756Z,50.53
2019-05-30T15:16:39.412Z,50.57
2019-05-30T15:19:10.422Z,50.48
2019-05-30T15:21:41.087Z,50.48
2019-05-30T15:24:12.829Z,50.15
2019-05-30T15:26:44.786Z,50.03
2019-05-30T15:29:16.312Z,50.14
2019-05-30T15:31:49.197Z,50.19
2019-05-30T15:34:19.897Z,50.09
2019-05-30T15:36:50.654Z,50.29
2019-05-30T15:39:32.422Z,50.30
2019-05-30T15:41:53.698Z,50.00
2019-05-30T15:44:24.249Z,50.24
2019-05-30T15:46:55.777Z,50.98
2019-05-30T15:49:26.354Z,50.78
2019-05-30T15:51:57.253Z,50.77
2019-05-30T15:54:27.916Z,51.08
2019-05-30T15:56:58.464Z,51.11
2019-05-30T15:59:28.950Z,51.43
2019-05-30T16:02:01.404Z,51.14
2019-05-30T16:04:31.720Z,51.14
2019-05-30T16:07:02.241Z,50.87
2019-05-30T16:09:46.284Z,50.84
2019-05-30T16:12:05.375Z,51.42
2019-05-30T16:14:37.189Z,51.69
2019-05-30T16:17:08.003Z,51.89
2019-05-30T16:19:38.695Z,52.15
2019-05-30T16:22:10.531Z,52.33
2019-05-30T16:24:41.202Z,51.99
2019-05-30T16:27:11.918Z,52.24
2019-05-30T16:29:42.487Z,52.27
2019-05-30T16:32:13.776Z,52.46
2019-05-30T16:34:44.447Z,52.39
2019-05-30T16:37:16.064Z,52.26
2019-05-30T16:40:04.390Z,52.23
2019-05-30T16:42:22.297Z,51.97
2019-05-30T16:44:52.846Z,51.98
2019-05-30T16:47:23.775Z,52.03
2019-05-30T16:49:54.563Z,52.16
2019-05-30T16:52:25.792Z,52.51
2019-05-30T16:54:56.429Z,52.66
2019-05-30T16:57:27.372Z,53.13
2019-05-30T16:59:58.057Z,52.90
2019-05-30T17:02:28.664Z,52.69
2019-05-30T17:04:59.199Z,52.53
2019-05-30T17:07:29.844Z,52.22
2019-05-30T17:10:00.453Z,51.84
2019-05-30T17:12:31.041Z,51.61
2019-05-30T17:15:03.600Z,51.31
2019-05-30T17:17:34.202Z,51.39
2019-05-30T17:20:05.346Z,51.20
2019-05-30T17:22:35.933Z,51.20
2019-05-30T17:25:06.908Z,51.15
2019-05-30T17:27:37.525Z,51.02
2019-05-30T17:30:09.181Z,51.04
2019-05-30T17:32:39.744Z,51.63
2019-05-30T17:35:11.436Z,51.72
2019-05-30T17:37:42.026Z,51.63
2019-05-30T17:40:14.546Z,51.80
2019-05-30T17:42:45.300Z,52.42
2019-05-30T17:45:16.340Z,52.64
2019-05-30T17:47:46.979Z,52.92
2019-05-30T17:50:19.691Z,53.23
2019-05-30T17:52:50.392Z,53.28
2019-05-30T17:55:23.853Z,53.27
2019-05-30T17:57:54.479Z,53.46
2019-05-30T18:00:26.450Z,53.67
2019-05-30T18:02:58.049Z,53.76
2019-05-30T18:05:30.988Z,53.74
2019-05-30T18:08:02.675Z,53.70
2019-05-30T18:10:34.669Z,53.75
2019-05-30T18:13:05.576Z,53.99
2019-05-30T18:15:36.063Z,54.23
2019-05-30T18:18:07.386Z,54.65
2019-05-30T18:20:48.467Z,55.19
2019-05-30T18:23:12.571Z,55.57
2019-05-30T18:25:43.214Z,56.19
2019-05-30T18:28:13.772Z,56.09
2019-05-30T18:30:45.099Z,56.37
2019-05-30T18:33:16.419Z,57.12
2019-05-30T18:35:55.626Z,57.57
2019-05-30T18:38:28.402Z,57.89
2019-05-30T18:41:11.004Z,58.22
2019-05-30T18:43:36.860Z,58.29
2019-05-30T18:46:07.664Z,58.57
2019-05-30T18:48:38.596Z,58.79
2019-05-30T18:51:09.984Z,58.92
2019-05-30T18:53:40.844Z,59.08
2019-05-30T18:56:11.458Z,59.21
2019-05-30T18:58:42.141Z,59.23
2019-05-30T19:01:14.879Z,59.36
2019-05-30T19:03:46.686Z,59.61
2019-05-30T19:06:17.679Z,59.69
2019-05-30T19:08:48.395Z,59.69
2019-05-30T19:11:28.209Z,59.98
2019-05-30T19:13:54.653Z,60.34
2019-05-30T19:16:28.489Z,60.81
2019-05-30T19:19:00.524Z,61.25
2019-05-30T19:21:32.167Z,61.73
2019-05-30T19:24:04.122Z,61.94
2019-05-30T19:26:34.905Z,62.33
2019-05-30T19:29:05.795Z,62.23
2019-05-30T19:31:37.008Z,62.23
2019-05-30T19:34:09.256Z,62.79
2019-05-30T19:36:40.679Z,62.82
2019-05-30T19:39:11.250Z,62.82
2019-05-30T19:41:56.398Z,62.99
2019-05-30T19:44:14.016Z,63.16
2019-05-30T19:46:44.878Z,63.40
2019-05-30T19:49:15.488Z,63.66
2019-05-30T19:51:47.693Z,63.75
2019-05-30T19:54:18.341Z,64.19
2019-05-30T19:56:49.262Z,64.32
2019-05-30T19:59:19.808Z,64.35
2019-05-30T20:01:50.370Z,64.32
2019-05-30T20:04:20.958Z,64.39
2019-05-30T20:06:51.509Z,64.36
2019-05-30T20:09:22.239Z,64.33
2019-05-30T20:12:02.651Z,64.17
2019-05-30T20:14:25.147Z,64.13
2019-05-30T20:16:55.707Z,63.96
2019-05-30T20:19:26.389Z,64.11
2019-05-30T20:21:57.269Z,64.21
2019-05-30T20:24:28.774Z,64.39
2019-05-30T20:26:59.260Z,64.70
2019-05-30T20:29:29.970Z,64.81
2019-05-30T20:32:01.704Z,64.85
2019-05-30T20:34:32.593Z,65.08
2019-05-30T20:37:05.882Z,64.81
2019-05-30T20:39:36.633Z,64.69
2019-05-30T20:42:18.927Z,64.66
2019-05-30T20:44:39.462Z,64.77
2019-05-30T20:47:10.123Z,65.05
2019-05-30T20:49:41.230Z,65.35
2019-05-30T20:52:14.487Z,65.55
2019-05-30T20:54:45.571Z,65.95
2019-05-30T20:57:17.136Z,66.16
2019-05-30T20:59:47.970Z,66.37
2019-05-30T21:02:18.934Z,66.72
2019-05-30T21:04:51.901Z,66.79
2019-05-30T21:07:24.182Z,66.81
2019-05-30T21:09:56.037Z,67.14
2019-05-30T21:12:36.829Z,67.44
2019-05-30T21:15:03.141Z,67.46
2019-05-30T21:17:35.705Z,67.59
2019-05-30T21:20:10.953Z,67.77
2019-05-30T21:22:40.220Z,67.77
2019-05-30T21:25:11.364Z,67.66
2019-05-30T21:27:42.990Z,67.92
2019-05-30T21:30:14.123Z,67.94
2019-05-30T21:32:46.422Z,68.31
2019-05-30T21:35:17.626Z,68.29
2019-05-30T21:37:48.447Z,68.49
2019-05-30T21:40:19.305Z,68.66
2019-05-30T21:43:04.766Z,68.70
2019-05-30T21:45:24.760Z,68.84
2019-05-30T21:47:55.608Z,68.90
2019-05-30T21:50:30.424Z,69.10
2019-05-30T21:53:02.793Z,69.30
2019-05-30T21:55:34.611Z,69.17
2019-05-30T21:58:05.288Z,69.19
2019-05-30T22:01:16.708Z,69.15
2019-05-30T22:03:48.731Z,69.11
2019-05-30T22:06:19.491Z,69.38
2019-05-30T22:08:51.556Z,69.75
2019-05-30T22:11:22.644Z,69.69
2019-05-30T22:13:53.253Z,69.55
2019-05-30T22:16:24.027Z,69.70
2019-05-30T22:18:54.516Z,69.77
2019-05-30T22:21:25.158Z,70.33
2019-05-30T22:23:55.691Z,70.55
2019-05-30T22:26:26.432Z,70.93
2019-05-30T22:28:56.990Z,71.02
2019-05-30T22:31:27.578Z,71.40
2019-05-30T22:33:58.103Z,71.69
2019-05-30T22:36:28.579Z,72.03
2019-05-30T22:38:59.018Z,72.26
2019-05-30T22:41:29.580Z,72.51
2019-05-30T22:44:00.118Z,72.62
2019-05-30T22:46:30.627Z,72.71
2019-05-30T22:49:01.201Z,73.11
2019-05-30T22:51:31.736Z,73.49
2019-05-30T22:54:02.183Z,73.63
2019-05-30T22:56:32.830Z,73.93
2019-05-30T22:59:03.248Z,74.10
2019-05-30T23:01:33.727Z,74.57
2019-05-30T23:04:04.654Z,74.86
2019-05-30T23:06:35.159Z,75.28
2019-05-30T23:09:07.556Z,75.36
2019-05-30T23:11:38.150Z,75.80
2019-05-30T23:14:10.026Z,75.87
2019-05-30T23:16:40.569Z,76.16
2019-05-30T23:19:11.093Z,76.46
2019-05-30T23:21:41.659Z,76.55
2019-05-30T23:24:12.338Z,76.88
2019-05-30T23:26:45.177Z,76.98
2019-05-30T23:29:15.964Z,77.13
2019-05-30T23:31:47.919Z,77.35
2019-05-30T23:34:18.469Z,77.55
2019-05-30T23:36:50.425Z,77.84
2019-05-30T23:39:21.384Z,78.03
2019-05-30T23:41:52.955Z,78.21
2019-05-30T23:44:23.562Z,78.43
2019-05-30T23:46:55.454Z,78.61
2019-05-30T23:49:28.641Z,78.78
2019-05-30T23:52:00.372Z,78.98
2019-05-30T23:54:32.051Z,79.16
2019-05-30T23:57:02.614Z,79.34
2019-05-30T23:59:33.235Z,79.67
